Seven Seas Voyager — C6SW3 — position and weather

sailwx.info

Track history (hours):
 
Tides and Currents Weather Stations Pressure Air Temp Water Temp Dewpoint Dewpoint Depression Visibility Wind Speed Wind Dir Waves Ship Positions

Seven Seas Voyager

Last reported at 2018-Sep-18 17:33 UTC. Time now 2018-Sep-19 02:54 UTC.
Position N 41°26' E 002°32'.

Length 205 m; draft 7 m.

Type: Ship. MMSI: 31151000.

Date/timePositionNaut miles runAvg speedWind from/ knotsBaromVisibWave heightAir tempDewpointWater temp
2018-Sep-18 17:33N 41°26' E 002°32'115.5
2018-Sep-18 17:30N 41°25' E 002°31'715.4
2018-Sep-18 17:02N 41°22' E 002°22'015.1
2018-Sep-18 17:00N 41°22' E 002°21'714.1
2018-Sep-18 16:30N 41°20' E 002°12'2 2.0
2018-Sep-18 15:18N 41°22' E 002°11'0 0.0
2018-Sep-18 12:48N 41°22' E 002°11'0 0.0
2018-Sep-18 12:30N 41°22' E 002°11'0 0.0
2018-Sep-18 05:19N 41°22' E 002°11'1 4.2
2018-Sep-18 05:03N 41°21' E 002°11'0 6.9
2018-Sep-18 04:59N 41°21' E 002°12'612.0
2018-Sep-18 04:30N 41°15' E 002°14'714.8
2018-Sep-18 04:03N 41°09' E 002°15'9914.1
2018-Sep-17 21:03N 39°30' E 002°20'114.2
2018-Sep-17 21:00N 39°29' E 002°21'713.9
2018-Sep-17 20:30N 39°26' E 002°29'613.2
2018-Sep-17 20:03N 39°29' E 002°36'115.7
2018-Sep-17 20:00N 39°29' E 002°36'4 8.6
2018-Sep-17 19:30N 39°33' E 002°38'0 0.1
2018-Sep-17 19:03N 39°33' E 002°38'0 0.0
2018-Sep-17 18:57N 39°33' E 002°38'0 0.0
2018-Sep-17 18:27N 39°33' E 002°38'0 0.0
2018-Sep-17 18:03N 39°33' E 002°38'0 0.0
2018-Sep-17 17:57N 39°33' E 002°38'0 0.0
2018-Sep-17 17:21N 39°33' E 002°38'0 0.0
2018-Sep-17 17:03N 39°33' E 002°38'0 0.0
2018-Sep-17 16:57N 39°33' E 002°38'0 0.0
2018-Sep-17 16:27N 39°33' E 002°38'0 0.0
2018-Sep-17 16:03N 39°33' E 002°38'0 0.0
2018-Sep-17 15:57N 39°33' E 002°38'0 0.0
2018-Sep-17 15:27N 39°33' E 002°38'0 0.0
2018-Sep-17 15:03N 39°33' E 002°38'0 0.0
2018-Sep-17 14:57N 39°33' E 002°38'0 0.0
2018-Sep-17 14:27N 39°33' E 002°38'0 0.0
2018-Sep-17 13:57N 39°33' E 002°38'0 0.0
2018-Sep-17 13:27N 39°33' E 002°38'0 0.0
2018-Sep-17 13:03N 39°33' E 002°38'0 0.0
2018-Sep-17 12:57N 39°33' E 002°38'0 0.0
2018-Sep-17 12:27N 39°33' E 002°38'0 0.0
2018-Sep-17 12:03N 39°33' E 002°38'0 0.0
2018-Sep-17 11:57N 39°33' E 002°38'0 0.0
2018-Sep-17 11:27N 39°33' E 002°38'0 0.0
2018-Sep-17 11:03N 39°33' E 002°38'0 0.0
2018-Sep-17 10:57N 39°33' E 002°38'0 0.2
2018-Sep-17 10:30N 39°33' E 002°38'1 2.6
2018-Sep-17 10:03N 39°32' E 002°39'0 2.8
2018-Sep-17 10:00N 39°32' E 002°39'612.3
2018-Sep-17 09:30N 39°26' E 002°39'816.8
2018-Sep-17 09:03N 39°19' E 002°43'116.8
2018-Sep-17 09:00N 39°18' E 002°43'816.5
2018-Sep-17 08:30N 39°10' E 002°48'715.2
2018-Sep-17 08:03N 39°05' E 002°54'116.9
2018-Sep-17 08:00N 39°05' E 002°55'917.5
2018-Sep-17 07:30N 39°04' E 003°06'817.3
2018-Sep-17 07:03N 39°03' E 003°16'117.2
2018-Sep-17 07:00N 39°03' E 003°17'35112.0
2018-Sep-16 01:44N 38°50' E 010°49'717.1
2018-Sep-16 01:20N 38°48' E 010°57'3817.0
2018-Sep-15 23:05N 38°43' E 011°46'516.9
2018-Sep-15 22:46N 38°42' E 011°53'2816.7
2018-Sep-15 21:05N 38°38' E 012°28'316.4
2018-Sep-15 20:53N 38°38' E 012°33'616.5
2018-Sep-15 20:29N 38°37' E 012°41'716.5
2018-Sep-15 20:03N 38°36' E 012°50'116.6
2018-Sep-15 20:00N 38°36' E 012°51'916.5
2018-Sep-15 19:29N 38°34' E 013°02'716.5
2018-Sep-15 19:03N 38°34' E 013°11'116.5
2018-Sep-15 19:00N 38°34' E 013°12'816.8
2018-Sep-15 18:30N 38°33' E 013°22'817.1
2018-Sep-15 18:03N 38°32' E 013°32'349.2
2018-Sep-15 18:00N 38°30' E 013°30'4440.5 360 / 71020.010.8 24.019.6
2018-Sep-15 17:59N 38°32' E 013°34'3716.6
2018-Sep-15 15:45N 38°29' E 014°21'916.5
2018-Sep-15 15:14N 38°28' E 014°32'316.5
2018-Sep-15 15:03N 38°28' E 014°36'916.6
2018-Sep-15 14:30N 38°27' E 014°47'8 3.0
2018-Sep-15 11:43N 38°28' E 014°58'0 0.0
2018-Sep-15 09:55N 38°28' E 014°58'0 0.0
2018-Sep-15 08:43N 38°28' E 014°58'0 0.0
2018-Sep-15 06:37N 38°28' E 014°58'0 0.0
2018-Sep-15 06:13N 38°28' E 014°58'0 0.0
2018-Sep-15 06:01N 38°28' E 014°58'0 0.1
2018-Sep-15 05:55N 38°28' E 014°58'0 0.1
2018-Sep-15 05:25N 38°28' E 014°58'0 0.1
2018-Sep-15 05:03N 38°28' E 014°58'0 0.1
2018-Sep-15 05:00N 38°28' E 014°58'3 5.2
2018-Sep-15 04:28N 38°30' E 015°00'510.1
2018-Sep-15 03:57N 38°35' E 014°59'8510.0
2018-Sep-14 19:30N 39°59' E 014°44'510.2
2018-Sep-14 19:01N 40°04' E 014°43'010.2
2018-Sep-14 19:00N 40°04' E 014°43'4575.3
2018-Sep-14 19:00N 40°00' E 014°42'918.1 300 / 101015.010.8 25.020.7
2018-Sep-14 18:29N 40°09' E 014°42'410.1
2018-Sep-14 18:03N 40°14' E 014°41'473.6
2018-Sep-14 18:00N 40°12' E 014°36'4409.3 300 / 101015.010.8 25.020.7
2018-Sep-14 17:59N 40°14' E 014°40'510.1
2018-Sep-14 17:30N 40°19' E 014°39'510.2
2018-Sep-14 17:03N 40°23' E 014°38'1 9.9
2018-Sep-14 17:00N 40°24' E 014°38'510.1
2018-Sep-14 16:30N 40°29' E 014°37'510.0
2018-Sep-14 16:03N 40°34' E 014°36'0 9.9
2018-Sep-14 16:00N 40°34' E 014°36'3 0.2
2018-Sep-14 04:43N 40°37' E 014°36'210.3
2018-Sep-14 04:30N 40°34' E 014°35'714.7
2018-Sep-14 04:03N 40°32' E 014°27'114.9
2018-Sep-14 04:00N 40°32' E 014°26'1614.6
2018-Sep-14 02:56N 40°31' E 014°06'715.3
2018-Sep-14 02:30N 40°33' E 013°57'715.3
2018-Sep-14 02:03N 40°35' E 013°49'115.5
2018-Sep-14 02:00N 40°35' E 013°47'815.8
2018-Sep-14 01:30N 40°37' E 013°38'11217.2
2018-Sep-13 19:00N 41°48' E 011°42'15 0.9 240 / 181016.010.8 22.019.0
2018-Sep-13 03:22N 42°03' E 011°42'714.9
2018-Sep-13 02:53N 41°56' E 011°44'614.6
2018-Sep-13 02:30N 41°50' E 011°45'714.5
2018-Sep-13 02:03N 41°44' E 011°46'114.5
2018-Sep-13 02:00N 41°43' E 011°46'714.3
2018-Sep-13 01:30N 41°37' E 011°52'714.5
2018-Sep-13 01:03N 41°32' E 011°57'114.4
2018-Sep-13 01:00N 41°32' E 011°58'714.3
2018-Sep-13 00:30N 41°26' E 012°04'614.4
2018-Sep-13 00:04N 41°21' E 012°09'114.3
2018-Sep-12 23:59N 41°20' E 012°10'714.3
2018-Sep-12 23:30N 41°15' E 012°16'614.2
2018-Sep-12 23:03N 41°10' E 012°21'114.4
2018-Sep-12 23:00N 41°09' E 012°22'714.2
2018-Sep-12 22:30N 41°04' E 012°28'714.4
2018-Sep-12 22:03N 40°59' E 012°33'1014.6
2018-Sep-12 21:23N 40°51' E 012°42'514.4
2018-Sep-12 21:03N 40°47' E 012°45'114.6
2018-Sep-12 21:00N 40°47' E 012°46'713.9
2018-Sep-12 20:30N 40°43' E 012°54'714.8
2018-Sep-12 20:03N 40°42' E 013°03'114.7
2018-Sep-12 20:00N 40°42' E 013°03'815.2
2018-Sep-12 19:30N 40°41' E 013°13'715.1
2018-Sep-12 19:03N 40°40' E 013°22'115.3
2018-Sep-12 19:00N 40°40' E 013°23'714.7
2018-Sep-12 18:30N 40°39' E 013°33'714.9
2018-Sep-12 18:03N 40°38' E 013°42'114.9
2018-Sep-12 18:00N 40°38' E 013°43'714.9
2018-Sep-12 17:30N 40°37' E 013°52'714.8
2018-Sep-12 17:03N 40°38' E 014°01'114.8
2018-Sep-12 17:00N 40°38' E 014°02'815.0
2018-Sep-12 16:30N 40°39' E 014°12'714.7
2018-Sep-12 16:02N 40°40' E 014°21'014.7
2018-Sep-12 16:00N 40°40' E 014°21'2 3.4
2018-Sep-12 15:30N 40°38' E 014°23'011.5
2018-Sep-12 15:28N 40°38' E 014°23'0 1.2
2018-Sep-12 15:06N 40°38' E 014°23'0 5.7
2018-Sep-12 15:03N 40°38' E 014°23'027.5
2018-Sep-12 15:02N 40°38' E 014°23'0 1.1
2018-Sep-12 15:00N 40°38' E 014°23'0 9.0
2018-Sep-12 15:00N 40°38' E 014°23'0223.0
2018-Sep-12 15:00N 40°38' E 014°23'0 0.2
2018-Sep-12 14:30N 40°38' E 014°23'0 0.7
2018-Sep-12 14:03N 40°38' E 014°23'044.1
2018-Sep-12 14:03N 40°38' E 014°23'114.3
2018-Sep-12 14:00N 40°38' E 014°23'1109.7
2018-Sep-12 14:00N 40°38' E 014°23'0 5.9
2018-Sep-12 14:00N 40°38' E 014°23'0 0.0
2018-Sep-12 13:30N 40°38' E 014°23'0 1.2
2018-Sep-12 13:28N 40°38' E 014°23'137.1
2018-Sep-12 13:27N 40°38' E 014°23'0 0.0
2018-Sep-12 13:03N 40°38' E 014°23'0 1.4
2018-Sep-12 13:00N 40°38' E 014°23'112.2
2018-Sep-12 12:57N 40°38' E 014°23'0 0.4
2018-Sep-12 12:54N 40°38' E 014°23'1 1.7
2018-Sep-12 12:31N 40°38' E 014°23'140.2
2018-Sep-12 12:30N 40°38' E 014°23'0 0.8
2018-Sep-12 12:26N 40°38' E 014°23'0 0.4
2018-Sep-12 12:04N 40°38' E 014°23'1207.4
2018-Sep-12 12:03N 40°38' E 014°23'0 3.3
2018-Sep-12 12:00N 40°38' E 014°23'066.1
2018-Sep-12 12:00N 40°38' E 014°23'032.3
2018-Sep-12 12:00N 40°38' E 014°23'0 0.4
2018-Sep-12 11:30N 40°38' E 014°23'1190.8
2018-Sep-12 11:30N 40°38' E 014°23'1103.0
2018-Sep-12 11:29N 40°38' E 014°23'0 0.2
2018-Sep-12 11:03N 40°38' E 014°23'0162.3
2018-Sep-12 11:03N 40°38' E 014°23'111.5
2018-Sep-12 11:01N 40°38' E 014°23'0 1.1
2018-Sep-12 11:00N 40°38' E 014°23'121.2
2018-Sep-12 10:58N 40°38' E 014°23'1 1.3
2018-Sep-12 10:30N 40°38' E 014°23'153.5
2018-Sep-12 10:29N 40°38' E 014°23'1 1.2
2018-Sep-12 10:03N 40°38' E 014°23'0 7.5
2018-Sep-12 10:00N 40°38' E 014°23'079.1
2018-Sep-12 09:59N 40°38' E 014°23'1 1.2
2018-Sep-12 09:30N 40°38' E 014°23'198.4
2018-Sep-12 09:30N 40°38' E 014°23'0 7.3
2018-Sep-12 09:29N 40°38' E 014°23'0 0.2
2018-Sep-12 09:03N 40°38' E 014°23'0 4.9
2018-Sep-12 09:02N 40°38' E 014°23'012.4
2018-Sep-12 09:00N 40°38' E 014°23'022.5
2018-Sep-12 09:00N 40°38' E 014°23'0 5.8
2018-Sep-12 08:59N 40°38' E 014°23'0 0.1
2018-Sep-12 08:30N 40°38' E 014°23'074.0
2018-Sep-12 08:30N 40°38' E 014°23'0 1.7
2018-Sep-12 08:30N 40°38' E 014°23'1 1.5
2018-Sep-12 08:03N 40°38' E 014°23'122.3
2018-Sep-12 08:02N 40°38' E 014°23'019.2
2018-Sep-12 08:00N 40°38' E 014°23'191.1
2018-Sep-12 08:00N 40°38' E 014°23'0 0.9
2018-Sep-12 07:55N 40°38' E 014°23'0 1.0
2018-Sep-12 07:30N 40°38' E 014°23'045.2
2018-Sep-12 07:29N 40°38' E 014°23'0 0.5
2018-Sep-12 07:24N 40°38' E 014°23'1 1.9
2018-Sep-12 07:03N 40°38' E 014°23'114.0
2018-Sep-12 07:01N 40°38' E 014°23'0 2.7
2018-Sep-12 07:00N 40°38' E 014°23'0196.1
2018-Sep-12 07:00N 40°38' E 014°23'038.2
2018-Sep-12 06:59N 40°38' E 014°23'1 1.0
2018-Sep-12 06:30N 40°38' E 014°23'1112.0
2018-Sep-12 06:30N 40°38' E 014°23'019.2
2018-Sep-12 06:29N 40°38' E 014°23'0 0.5
2018-Sep-12 06:03N 40°38' E 014°23'165.8
2018-Sep-12 06:03N 40°38' E 014°23'113.7
2018-Sep-12 06:00N 40°38' E 014°23'012.8
2018-Sep-12 06:00N 40°38' E 014°23'153.9
2018-Sep-12 05:59N 40°38' E 014°23'1 1.2
2018-Sep-12 05:30N 40°38' E 014°23'0 1.8
2018-Sep-12 05:29N 40°38' E 014°23'0 0.4
2018-Sep-12 05:26N 40°38' E 014°23'1 1.5
2018-Sep-12 05:03N 40°38' E 014°23'1320.5
2018-Sep-12 05:03N 40°38' E 014°23'0 1.1
2018-Sep-12 05:00N 40°38' E 014°23'2 4.8
2018-Sep-12 04:30N 40°40' E 014°21'613.9
2018-Sep-12 04:03N 40°37' E 014°14'113.6
2018-Sep-12 03:59N 40°36' E 014°13'712.6
2018-Sep-12 03:27N 40°30' E 014°10'716.5
2018-Sep-12 03:03N 40°24' E 014°15'116.6
2018-Sep-12 03:00N 40°23' E 014°15'816.8
2018-Sep-12 02:30N 40°16' E 014°20'816.6
2018-Sep-12 02:02N 40°09' E 014°25'116.2
2018-Sep-12 02:00N 40°09' E 014°25'816.6
2018-Sep-12 01:30N 40°01' E 014°31'7116.4
2018-Sep-11 21:12N 38°59' E 015°15'716.2
2018-Sep-11 20:46N 38°53' E 015°20'416.1
2018-Sep-11 20:29N 38°50' E 015°22'816.0
2018-Sep-11 20:01N 38°43' E 015°26'016.0
2018-Sep-11 20:00N 38°42' E 015°26'2169.8
2018-Sep-11 20:00N 38°42' E 015°24'917.7 360 / 91022.010.8 25.020.7
2018-Sep-11 19:30N 38°35' E 015°31'716.2
2018-Sep-11 19:03N 38°29' E 015°36'116.4
2018-Sep-11 19:00N 38°28' E 015°36'816.4
2018-Sep-11 18:30N 38°21' E 015°41'612.7
2018-Sep-11 18:03N 38°15' E 015°41'115.6
2018-Sep-11 18:00N 38°15' E 015°40'714.1
2018-Sep-11 17:30N 38°09' E 015°36'22 1.9
2018-Sep-11 05:54N 37°50' E 015°21'615.1
2018-Sep-11 05:30N 37°50' E 015°29'716.3
2018-Sep-11 05:03N 37°49' E 015°38'415.9
2018-Sep-11 04:48N 37°49' E 015°43'515.8
2018-Sep-11 04:30N 37°49' E 015°49'715.9
2018-Sep-11 04:03N 37°49' E 015°58'115.7
2018-Sep-11 04:00N 37°49' E 015°59'20622.9
2018-Sep-10 19:00N 39°12' E 020°00'0 0.0 360 / 251018.010.8 24.021.1
2018-Sep-10 18:00N 39°12' E 020°00'106 4.6 340 / 311018.010.8 24.021.1
2018-Sep-09 19:00N 40°48' E 019°00'95 3.8 330 / 251018.010.8 24.021.1
2018-Sep-08 18:00N 42°18' E 018°18'   300 / 141016.010.8 25.020.7
Track history (hours):
 
Tides and Currents Weather Stations Pressure Air Temp Water Temp Dewpoint Dewpoint Depression Visibility Wind Speed Wind Dir Waves Ship Positions

Seven Seas Voyager

Last reported at 2018-Sep-18 17:33 UTC. Time now 2018-Sep-19 02:54 UTC.
Position N 41°26' E 002°32'.

Length 205 m; draft 7 m.

Type: Ship. MMSI: 31151000.

Date/timePositionNaut miles runAvg speedWind from/ knotsBaromVisibWave heightAir tempDewpointWater temp
2018-Sep-18 17:33N 41°26' E 002°32'115.5
2018-Sep-18 17:30N 41°25' E 002°31'715.4
2018-Sep-18 17:02N 41°22' E 002°22'015.1
2018-Sep-18 17:00N 41°22' E 002°21'714.1
2018-Sep-18 16:30N 41°20' E 002°12'2 2.0
2018-Sep-18 15:18N 41°22' E 002°11'0 0.0
2018-Sep-18 12:48N 41°22' E 002°11'0 0.0
2018-Sep-18 12:30N 41°22' E 002°11'0 0.0
2018-Sep-18 05:19N 41°22' E 002°11'1 4.2
2018-Sep-18 05:03N 41°21' E 002°11'0 6.9
2018-Sep-18 04:59N 41°21' E 002°12'612.0
2018-Sep-18 04:30N 41°15' E 002°14'714.8
2018-Sep-18 04:03N 41°09' E 002°15'9914.1
2018-Sep-17 21:03N 39°30' E 002°20'114.2
2018-Sep-17 21:00N 39°29' E 002°21'713.9
2018-Sep-17 20:30N 39°26' E 002°29'613.2
2018-Sep-17 20:03N 39°29' E 002°36'115.7
2018-Sep-17 20:00N 39°29' E 002°36'4 8.6
2018-Sep-17 19:30N 39°33' E 002°38'0 0.1
2018-Sep-17 19:03N 39°33' E 002°38'0 0.0
2018-Sep-17 18:57N 39°33' E 002°38'0 0.0
2018-Sep-17 18:27N 39°33' E 002°38'0 0.0
2018-Sep-17 18:03N 39°33' E 002°38'0 0.0
2018-Sep-17 17:57N 39°33' E 002°38'0 0.0
2018-Sep-17 17:21N 39°33' E 002°38'0 0.0
2018-Sep-17 17:03N 39°33' E 002°38'0 0.0
2018-Sep-17 16:57N 39°33' E 002°38'0 0.0
2018-Sep-17 16:27N 39°33' E 002°38'0 0.0
2018-Sep-17 16:03N 39°33' E 002°38'0 0.0
2018-Sep-17 15:57N 39°33' E 002°38'0 0.0
2018-Sep-17 15:27N 39°33' E 002°38'0 0.0
2018-Sep-17 15:03N 39°33' E 002°38'0 0.0
2018-Sep-17 14:57N 39°33' E 002°38'0 0.0
2018-Sep-17 14:27N 39°33' E 002°38'0 0.0
2018-Sep-17 13:57N 39°33' E 002°38'0 0.0
2018-Sep-17 13:27N 39°33' E 002°38'0 0.0
2018-Sep-17 13:03N 39°33' E 002°38'0 0.0
2018-Sep-17 12:57N 39°33' E 002°38'0 0.0
2018-Sep-17 12:27N 39°33' E 002°38'0 0.0
2018-Sep-17 12:03N 39°33' E 002°38'0 0.0
2018-Sep-17 11:57N 39°33' E 002°38'0 0.0
2018-Sep-17 11:27N 39°33' E 002°38'0 0.0
2018-Sep-17 11:03N 39°33' E 002°38'0 0.0
2018-Sep-17 10:57N 39°33' E 002°38'0 0.2
2018-Sep-17 10:30N 39°33' E 002°38'1 2.6
2018-Sep-17 10:03N 39°32' E 002°39'0 2.8
2018-Sep-17 10:00N 39°32' E 002°39'612.3
2018-Sep-17 09:30N 39°26' E 002°39'816.8
2018-Sep-17 09:03N 39°19' E 002°43'116.8
2018-Sep-17 09:00N 39°18' E 002°43'816.5
2018-Sep-17 08:30N 39°10' E 002°48'715.2
2018-Sep-17 08:03N 39°05' E 002°54'116.9
2018-Sep-17 08:00N 39°05' E 002°55'917.5
2018-Sep-17 07:30N 39°04' E 003°06'817.3
2018-Sep-17 07:03N 39°03' E 003°16'117.2
2018-Sep-17 07:00N 39°03' E 003°17'35112.0
2018-Sep-16 01:44N 38°50' E 010°49'717.1
2018-Sep-16 01:20N 38°48' E 010°57'3817.0
2018-Sep-15 23:05N 38°43' E 011°46'516.9
2018-Sep-15 22:46N 38°42' E 011°53'2816.7
2018-Sep-15 21:05N 38°38' E 012°28'316.4
2018-Sep-15 20:53N 38°38' E 012°33'616.5
2018-Sep-15 20:29N 38°37' E 012°41'716.5
2018-Sep-15 20:03N 38°36' E 012°50'116.6
2018-Sep-15 20:00N 38°36' E 012°51'916.5
2018-Sep-15 19:29N 38°34' E 013°02'716.5
2018-Sep-15 19:03N 38°34' E 013°11'116.5
2018-Sep-15 19:00N 38°34' E 013°12'816.8
2018-Sep-15 18:30N 38°33' E 013°22'817.1
2018-Sep-15 18:03N 38°32' E 013°32'349.2
2018-Sep-15 18:00N 38°30' E 013°30'4440.5 360 / 71020.010.8 24.019.6
2018-Sep-15 17:59N 38°32' E 013°34'3716.6
2018-Sep-15 15:45N 38°29' E 014°21'916.5
2018-Sep-15 15:14N 38°28' E 014°32'316.5
2018-Sep-15 15:03N 38°28' E 014°36'916.6
2018-Sep-15 14:30N 38°27' E 014°47'8 3.0
2018-Sep-15 11:43N 38°28' E 014°58'0 0.0
2018-Sep-15 09:55N 38°28' E 014°58'0 0.0
2018-Sep-15 08:43N 38°28' E 014°58'0 0.0
2018-Sep-15 06:37N 38°28' E 014°58'0 0.0
2018-Sep-15 06:13N 38°28' E 014°58'0 0.0
2018-Sep-15 06:01N 38°28' E 014°58'0 0.1
2018-Sep-15 05:55N 38°28' E 014°58'0 0.1
2018-Sep-15 05:25N 38°28' E 014°58'0 0.1
2018-Sep-15 05:03N 38°28' E 014°58'0 0.1
2018-Sep-15 05:00N 38°28' E 014°58'3 5.2
2018-Sep-15 04:28N 38°30' E 015°00'510.1
2018-Sep-15 03:57N 38°35' E 014°59'8510.0
2018-Sep-14 19:30N 39°59' E 014°44'510.2
2018-Sep-14 19:01N 40°04' E 014°43'010.2
2018-Sep-14 19:00N 40°04' E 014°43'4575.3
2018-Sep-14 19:00N 40°00' E 014°42'918.1 300 / 101015.010.8 25.020.7
2018-Sep-14 18:29N 40°09' E 014°42'410.1
2018-Sep-14 18:03N 40°14' E 014°41'473.6
2018-Sep-14 18:00N 40°12' E 014°36'4409.3 300 / 101015.010.8 25.020.7
2018-Sep-14 17:59N 40°14' E 014°40'510.1
2018-Sep-14 17:30N 40°19' E 014°39'510.2
2018-Sep-14 17:03N 40°23' E 014°38'1 9.9
2018-Sep-14 17:00N 40°24' E 014°38'510.1
2018-Sep-14 16:30N 40°29' E 014°37'510.0
2018-Sep-14 16:03N 40°34' E 014°36'0 9.9
2018-Sep-14 16:00N 40°34' E 014°36'3 0.2
2018-Sep-14 04:43N 40°37' E 014°36'210.3
2018-Sep-14 04:30N 40°34' E 014°35'714.7
2018-Sep-14 04:03N 40°32' E 014°27'114.9
2018-Sep-14 04:00N 40°32' E 014°26'1614.6
2018-Sep-14 02:56N 40°31' E 014°06'715.3
2018-Sep-14 02:30N 40°33' E 013°57'715.3
2018-Sep-14 02:03N 40°35' E 013°49'115.5
2018-Sep-14 02:00N 40°35' E 013°47'815.8
2018-Sep-14 01:30N 40°37' E 013°38'11217.2
2018-Sep-13 19:00N 41°48' E 011°42'15 0.9 240 / 181016.010.8 22.019.0
2018-Sep-13 03:22N 42°03' E 011°42'714.9
2018-Sep-13 02:53N 41°56' E 011°44'614.6
2018-Sep-13 02:30N 41°50' E 011°45'714.5
2018-Sep-13 02:03N 41°44' E 011°46'114.5
2018-Sep-13 02:00N 41°43' E 011°46'714.3
2018-Sep-13 01:30N 41°37' E 011°52'714.5
2018-Sep-13 01:03N 41°32' E 011°57'114.4
2018-Sep-13 01:00N 41°32' E 011°58'714.3
2018-Sep-13 00:30N 41°26' E 012°04'614.4
2018-Sep-13 00:04N 41°21' E 012°09'114.3
2018-Sep-12 23:59N 41°20' E 012°10'714.3
2018-Sep-12 23:30N 41°15' E 012°16'614.2
2018-Sep-12 23:03N 41°10' E 012°21'114.4
2018-Sep-12 23:00N 41°09' E 012°22'714.2
2018-Sep-12 22:30N 41°04' E 012°28'714.4
2018-Sep-12 22:03N 40°59' E 012°33'1014.6
2018-Sep-12 21:23N 40°51' E 012°42'514.4
2018-Sep-12 21:03N 40°47' E 012°45'114.6
2018-Sep-12 21:00N 40°47' E 012°46'713.9
2018-Sep-12 20:30N 40°43' E 012°54'714.8
2018-Sep-12 20:03N 40°42' E 013°03'114.7
2018-Sep-12 20:00N 40°42' E 013°03'815.2
2018-Sep-12 19:30N 40°41' E 013°13'715.1
2018-Sep-12 19:03N 40°40' E 013°22'115.3
2018-Sep-12 19:00N 40°40' E 013°23'714.7
2018-Sep-12 18:30N 40°39' E 013°33'714.9
2018-Sep-12 18:03N 40°38' E 013°42'114.9
2018-Sep-12 18:00N 40°38' E 013°43'714.9
2018-Sep-12 17:30N 40°37' E 013°52'714.8
2018-Sep-12 17:03N 40°38' E 014°01'114.8
2018-Sep-12 17:00N 40°38' E 014°02'815.0
2018-Sep-12 16:30N 40°39' E 014°12'714.7
2018-Sep-12 16:02N 40°40' E 014°21'014.7
2018-Sep-12 16:00N 40°40' E 014°21'2 3.4
2018-Sep-12 15:30N 40°38' E 014°23'011.5
2018-Sep-12 15:28N 40°38' E 014°23'0 1.2
2018-Sep-12 15:06N 40°38' E 014°23'0 5.7
2018-Sep-12 15:03N 40°38' E 014°23'027.5
2018-Sep-12 15:02N 40°38' E 014°23'0 1.1
2018-Sep-12 15:00N 40°38' E 014°23'0 9.0
2018-Sep-12 15:00N 40°38' E 014°23'0223.0
2018-Sep-12 15:00N 40°38' E 014°23'0 0.2
2018-Sep-12 14:30N 40°38' E 014°23'0 0.7
2018-Sep-12 14:03N 40°38' E 014°23'044.1
2018-Sep-12 14:03N 40°38' E 014°23'114.3
2018-Sep-12 14:00N 40°38' E 014°23'1109.7
2018-Sep-12 14:00N 40°38' E 014°23'0 5.9
2018-Sep-12 14:00N 40°38' E 014°23'0 0.0
2018-Sep-12 13:30N 40°38' E 014°23'0 1.2
2018-Sep-12 13:28N 40°38' E 014°23'137.1
2018-Sep-12 13:27N 40°38' E 014°23'0 0.0
2018-Sep-12 13:03N 40°38' E 014°23'0 1.4
2018-Sep-12 13:00N 40°38' E 014°23'112.2
2018-Sep-12 12:57N 40°38' E 014°23'0 0.4
2018-Sep-12 12:54N 40°38' E 014°23'1 1.7
2018-Sep-12 12:31N 40°38' E 014°23'140.2
2018-Sep-12 12:30N 40°38' E 014°23'0 0.8
2018-Sep-12 12:26N 40°38' E 014°23'0 0.4
2018-Sep-12 12:04N 40°38' E 014°23'1207.4
2018-Sep-12 12:03N 40°38' E 014°23'0 3.3
2018-Sep-12 12:00N 40°38' E 014°23'066.1
2018-Sep-12 12:00N 40°38' E 014°23'032.3
2018-Sep-12 12:00N 40°38' E 014°23'0 0.4
2018-Sep-12 11:30N 40°38' E 014°23'1190.8
2018-Sep-12 11:30N 40°38' E 014°23'1103.0
2018-Sep-12 11:29N 40°38' E 014°23'0 0.2
2018-Sep-12 11:03N 40°38' E 014°23'0162.3
2018-Sep-12 11:03N 40°38' E 014°23'111.5
2018-Sep-12 11:01N 40°38' E 014°23'0 1.1
2018-Sep-12 11:00N 40°38' E 014°23'121.2
2018-Sep-12 10:58N 40°38' E 014°23'1 1.3
2018-Sep-12 10:30N 40°38' E 014°23'153.5
2018-Sep-12 10:29N 40°38' E 014°23'1 1.2
2018-Sep-12 10:03N 40°38' E 014°23'0 7.5
2018-Sep-12 10:00N 40°38' E 014°23'079.1
2018-Sep-12 09:59N 40°38' E 014°23'1 1.2
2018-Sep-12 09:30N 40°38' E 014°23'198.4
2018-Sep-12 09:30N 40°38' E 014°23'0 7.3
2018-Sep-12 09:29N 40°38' E 014°23'0 0.2
2018-Sep-12 09:03N 40°38' E 014°23'0 4.9
2018-Sep-12 09:02N 40°38' E 014°23'012.4
2018-Sep-12 09:00N 40°38' E 014°23'022.5
2018-Sep-12 09:00N 40°38' E 014°23'0 5.8
2018-Sep-12 08:59N 40°38' E 014°23'0 0.1
2018-Sep-12 08:30N 40°38' E 014°23'074.0
2018-Sep-12 08:30N 40°38' E 014°23'0 1.7
2018-Sep-12 08:30N 40°38' E 014°23'1 1.5
2018-Sep-12 08:03N 40°38' E 014°23'122.3
2018-Sep-12 08:02N 40°38' E 014°23'019.2
2018-Sep-12 08:00N 40°38' E 014°23'191.1
2018-Sep-12 08:00N 40°38' E 014°23'0 0.9
2018-Sep-12 07:55N 40°38' E 014°23'0 1.0
2018-Sep-12 07:30N 40°38' E 014°23'045.2
2018-Sep-12 07:29N 40°38' E 014°23'0 0.5
2018-Sep-12 07:24N 40°38' E 014°23'1 1.9
2018-Sep-12 07:03N 40°38' E 014°23'114.0
2018-Sep-12 07:01N 40°38' E 014°23'0 2.7
2018-Sep-12 07:00N 40°38' E 014°23'0196.1
2018-Sep-12 07:00N 40°38' E 014°23'038.2
2018-Sep-12 06:59N 40°38' E 014°23'1 1.0
2018-Sep-12 06:30N 40°38' E 014°23'1112.0
2018-Sep-12 06:30N 40°38' E 014°23'019.2
2018-Sep-12 06:29N 40°38' E 014°23'0 0.5
2018-Sep-12 06:03N 40°38' E 014°23'165.8
2018-Sep-12 06:03N 40°38' E 014°23'113.7
2018-Sep-12 06:00N 40°38' E 014°23'012.8
2018-Sep-12 06:00N 40°38' E 014°23'153.9
2018-Sep-12 05:59N 40°38' E 014°23'1 1.2
2018-Sep-12 05:30N 40°38' E 014°23'0 1.8
2018-Sep-12 05:29N 40°38' E 014°23'0 0.4
2018-Sep-12 05:26N 40°38' E 014°23'1 1.5
2018-Sep-12 05:03N 40°38' E 014°23'1320.5
2018-Sep-12 05:03N 40°38' E 014°23'0 1.1
2018-Sep-12 05:00N 40°38' E 014°23'2 4.8
2018-Sep-12 04:30N 40°40' E 014°21'613.9
2018-Sep-12 04:03N 40°37' E 014°14'113.6
2018-Sep-12 03:59N 40°36' E 014°13'712.6
2018-Sep-12 03:27N 40°30' E 014°10'716.5
2018-Sep-12 03:03N 40°24' E 014°15'116.6
2018-Sep-12 03:00N 40°23' E 014°15'816.8
2018-Sep-12 02:30N 40°16' E 014°20'816.6
2018-Sep-12 02:02N 40°09' E 014°25'116.2
2018-Sep-12 02:00N 40°09' E 014°25'816.6
2018-Sep-12 01:30N 40°01' E 014°31'7116.4
2018-Sep-11 21:12N 38°59' E 015°15'716.2
2018-Sep-11 20:46N 38°53' E 015°20'416.1
2018-Sep-11 20:29N 38°50' E 015°22'816.0
2018-Sep-11 20:01N 38°43' E 015°26'016.0
2018-Sep-11 20:00N 38°42' E 015°26'2169.8
2018-Sep-11 20:00N 38°42' E 015°24'917.7 360 / 91022.010.8 25.020.7
2018-Sep-11 19:30N 38°35' E 015°31'716.2
2018-Sep-11 19:03N 38°29' E 015°36'116.4
2018-Sep-11 19:00N 38°28' E 015°36'816.4
2018-Sep-11 18:30N 38°21' E 015°41'612.7
2018-Sep-11 18:03N 38°15' E 015°41'115.6
2018-Sep-11 18:00N 38°15' E 015°40'714.1
2018-Sep-11 17:30N 38°09' E 015°36'22 1.9
2018-Sep-11 05:54N 37°50' E 015°21'615.1
2018-Sep-11 05:30N 37°50' E 015°29'716.3
2018-Sep-11 05:03N 37°49' E 015°38'415.9
2018-Sep-11 04:48N 37°49' E 015°43'515.8
2018-Sep-11 04:30N 37°49' E 015°49'715.9
2018-Sep-11 04:03N 37°49' E 015°58'115.7
2018-Sep-11 04:00N 37°49' E 015°59'20622.9
2018-Sep-10 19:00N 39°12' E 020°00'0 0.0 360 / 251018.010.8 24.021.1
2018-Sep-10 18:00N 39°12' E 020°00'106 4.6 340 / 311018.010.8 24.021.1
2018-Sep-09 19:00N 40°48' E 019°00'95 3.8 330 / 251018.010.8 24.021.1
2018-Sep-08 18:00N 42°18' E 018°18'   300 / 141016.010.8 25.020.7

Dump ship's entire track history